createdAt,value
2022-11-18T00:01:31.171Z,101916.22
2022-11-18T00:03:58.969Z,101934.19
2022-11-18T00:06:30.007Z,101928.06
2022-11-18T00:09:01.403Z,101914.22
2022-11-18T00:11:48.230Z,101927.84
2022-11-18T00:14:28.116Z,101931.16
2022-11-18T00:17:04.305Z,101926.84
2022-11-18T00:19:35.590Z,101925.97
2022-11-18T00:22:05.708Z,101940.19
2022-11-18T00:24:35.176Z,101936.88
2022-11-18T00:27:03.252Z,101947.88
2022-11-18T00:29:32.388Z,101920.13
2022-11-18T00:32:00.545Z,101946.41
2022-11-18T00:34:29.523Z,101950.31
2022-11-18T00:36:57.537Z,101943.59
2022-11-18T00:39:28.124Z,101947.03
2022-11-18T00:42:14.631Z,101941.84
2022-11-18T00:44:42.802Z,101954.56
2022-11-18T00:47:10.776Z,101971.91
2022-11-18T00:49:38.688Z,101957.47
2022-11-18T00:52:08.854Z,101936.00
2022-11-18T00:54:36.888Z,101954.72
2022-11-18T00:57:06.206Z,101948.22
2022-11-18T00:59:36.180Z,101955.97
2022-11-18T01:02:04.277Z,101956.84
2022-11-18T01:04:32.481Z,101965.09
2022-11-18T01:07:03.035Z,101967.75
2022-11-18T01:09:31.083Z,101953.72
2022-11-18T01:12:18.017Z,101966.50
2022-11-18T01:14:46.217Z,101955.69
2022-11-18T01:17:14.196Z,101960.06
2022-11-18T01:19:43.255Z,101961.00
2022-11-18T01:22:11.254Z,101960.94
2022-11-18T01:24:39.241Z,101966.03
2022-11-18T01:27:08.205Z,101970.91
2022-11-18T01:29:37.546Z,101968.38
2022-11-18T01:34:54.479Z,101976.94
2022-11-18T01:37:22.643Z,101980.22
2022-11-18T01:39:50.735Z,101988.44
2022-11-18T01:42:20.073Z,101967.19
2022-11-18T01:45:11.669Z,101982.69
2022-11-18T01:47:47.296Z,101981.41
2022-11-18T01:50:17.189Z,101988.44
2022-11-18T01:52:51.467Z,101979.34
2022-11-18T01:55:27.997Z,101987.19
2022-11-18T01:58:07.292Z,101983.81
2022-11-18T02:00:35.893Z,101988.22
2022-11-18T02:03:04.863Z,101984.06
2022-11-18T02:05:34.960Z,101995.72
2022-11-18T02:08:06.954Z,102005.69
2022-11-18T02:10:35.025Z,102011.38
2022-11-18T02:13:03.751Z,102005.50
2022-11-18T02:16:17.495Z,102006.38
2022-11-18T02:18:57.214Z,102007.16
2022-11-18T02:21:44.880Z,101994.47
2022-11-18T02:24:40.436Z,101993.69
2022-11-18T02:27:29.210Z,101996.03
2022-11-18T02:30:04.705Z,102000.41
2022-11-18T02:32:42.439Z,101997.22
2022-11-18T02:35:16.036Z,101998.25
2022-11-18T02:38:19.591Z,101989.16
2022-11-18T02:40:53.027Z,101999.75
2022-11-18T02:43:29.222Z,101994.97
2022-11-18T02:46:04.717Z,101985.28
2022-11-18T02:48:37.974Z,101999.88
2022-11-18T02:51:10.387Z,101978.19
2022-11-18T02:53:41.401Z,101995.91
2022-11-18T02:56:11.255Z,102002.50
2022-11-18T02:58:39.298Z,102001.22
2022-11-18T03:01:07.495Z,102002.38
2022-11-18T03:03:38.478Z,101997.78
2022-11-18T03:06:21.178Z,101993.13
2022-11-18T03:09:15.895Z,101997.50
2022-11-18T03:12:08.648Z,101999.53
2022-11-18T03:14:49.262Z,101997.19
2022-11-18T03:17:23.066Z,102002.81
2022-11-18T03:20:06.607Z,101995.66
2022-11-18T03:22:44.714Z,102011.41
2022-11-18T03:25:31.152Z,102005.75
2022-11-18T03:28:40.614Z,102005.41
2022-11-18T03:31:24.233Z,101999.81
2022-11-18T03:33:58.670Z,101994.28
2022-11-18T03:36:33.424Z,101988.59
2022-11-18T03:39:04.782Z,101997.50
2022-11-18T03:41:39.717Z,102003.47
2022-11-18T03:44:16.206Z,102003.75
2022-11-18T03:46:52.683Z,101985.13
2022-11-18T03:49:33.088Z,101991.53
2022-11-18T03:52:11.101Z,101989.34
2022-11-18T03:54:41.395Z,101988.63
2022-11-18T03:57:23.681Z,101997.19
2022-11-18T04:00:13.300Z,101989.03
2022-11-18T04:02:41.937Z,101993.47
2022-11-18T04:05:12.630Z,101992.09
2022-11-18T04:07:57.240Z,101993.28
2022-11-18T04:10:38.573Z,101982.41
2022-11-18T04:13:39.757Z,101987.44
2022-11-18T04:16:10.502Z,101993.53
2022-11-18T04:18:38.623Z,101980.38
2022-11-18T04:21:08.251Z,101983.94
2022-11-18T04:23:36.282Z,101991.63
2022-11-18T04:26:04.271Z,101976.84
2022-11-18T04:28:34.797Z,101978.91
2022-11-18T04:31:02.829Z,101969.94
2022-11-18T04:33:30.880Z,101972.75
2022-11-18T04:35:59.877Z,101975.56
2022-11-18T04:38:27.893Z,101921.28
2022-11-18T04:40:55.836Z,101974.59
2022-11-18T04:43:24.070Z,101967.28
2022-11-18T04:45:52.108Z,101969.06
2022-11-18T04:48:20.185Z,101969.25
2022-11-18T04:50:49.165Z,101971.03
2022-11-18T04:53:17.181Z,101977.88
2022-11-18T04:55:45.239Z,101974.59
2022-11-18T04:58:15.871Z,101969.84
2022-11-18T05:00:44.743Z,101973.59
2022-11-18T05:03:12.733Z,101966.31
2022-11-18T05:05:41.041Z,101968.22
2022-11-18T05:08:08.983Z,101969.94
2022-11-18T05:10:39.361Z,101959.91
2022-11-18T05:13:07.529Z,101964.50
2022-11-18T05:15:35.482Z,101963.03
2022-11-18T05:18:03.504Z,101967.44
2022-11-18T05:20:38.797Z,101965.13
2022-11-18T05:23:09.414Z,101964.44
2022-11-18T05:25:37.394Z,101956.63
2022-11-18T05:28:05.636Z,101965.31
2022-11-18T05:30:33.717Z,101971.09
2022-11-18T05:33:01.710Z,101957.94
2022-11-18T05:35:29.909Z,101972.59
2022-11-18T05:37:57.827Z,101975.41
2022-11-18T05:40:25.785Z,101966.22
2022-11-18T05:43:12.062Z,101962.72
2022-11-18T05:45:41.677Z,101957.47
2022-11-18T05:48:09.797Z,101959.81
2022-11-18T05:50:39.788Z,101969.06
2022-11-18T05:53:07.876Z,101969.75
2022-11-18T05:56:21.215Z,101963.66
2022-11-18T05:58:49.264Z,101966.19
2022-11-18T06:01:23.099Z,101963.78
2022-11-18T06:03:52.084Z,101947.72
2022-11-18T06:06:22.592Z,101957.34
2022-11-18T06:09:08.059Z,101953.16
2022-11-18T06:11:58.020Z,101960.78
2022-11-18T06:14:41.098Z,101952.44
2022-11-18T06:17:16.069Z,101959.34
2022-11-18T06:19:44.575Z,101951.19
2022-11-18T06:22:14.239Z,101954.78
2022-11-18T06:24:43.769Z,101946.22
2022-11-18T06:27:13.948Z,101949.59
2022-11-18T06:29:41.979Z,101944.50
2022-11-18T06:32:10.212Z,101947.75
2022-11-18T06:34:41.971Z,101936.91
2022-11-18T06:37:19.120Z,101954.69
2022-11-18T06:39:48.888Z,101948.72
2022-11-18T06:42:36.898Z,101932.94
2022-11-18T06:45:07.181Z,101949.44
2022-11-18T06:47:35.184Z,101946.50
2022-11-18T06:50:03.199Z,101932.41
2022-11-18T06:52:31.404Z,101937.94
2022-11-18T06:54:59.479Z,101949.84
2022-11-18T06:57:27.571Z,101953.47
2022-11-18T07:00:01.658Z,101946.91
2022-11-18T07:02:32.058Z,101958.88
2022-11-18T07:05:00.087Z,101951.31
2022-11-18T07:07:31.187Z,101960.72
2022-11-18T07:09:59.384Z,101954.91
2022-11-18T07:12:27.342Z,101949.91
2022-11-18T07:14:55.505Z,101950.72
2022-11-18T07:17:23.564Z,101942.31
2022-11-18T07:19:51.643Z,101934.78
2022-11-18T07:22:21.134Z,101935.75
2022-11-18T07:24:51.157Z,101940.97
2022-11-18T07:27:21.720Z,101944.28
2022-11-18T07:29:52.056Z,101948.59
2022-11-18T07:32:20.107Z,101947.00
2022-11-18T07:34:48.112Z,101938.34
2022-11-18T07:37:18.131Z,101942.53
2022-11-18T07:39:46.311Z,101948.44
2022-11-18T07:42:14.429Z,101941.00
2022-11-18T07:44:42.693Z,101942.72
2022-11-18T07:47:10.691Z,101952.13
2022-11-18T07:49:38.748Z,101954.81
2022-11-18T07:52:06.853Z,101961.63
2022-11-18T07:54:34.835Z,101947.25
2022-11-18T07:57:02.823Z,101946.34
2022-11-18T07:59:31.739Z,101954.03
2022-11-18T08:02:00.889Z,101938.94
2022-11-18T08:04:29.088Z,101953.22
2022-11-18T08:06:58.713Z,101949.69
2022-11-18T08:09:26.814Z,101949.75
2022-11-18T08:11:54.777Z,101940.44
2022-11-18T08:14:24.975Z,101932.91
2022-11-18T08:16:53.014Z,101948.19
2022-11-18T08:19:21.101Z,101935.44
2022-11-18T08:21:50.965Z,101943.78
2022-11-18T08:24:21.865Z,101946.34
2022-11-18T08:26:51.572Z,101953.88
2022-11-18T08:29:24.973Z,101940.28
2022-11-18T08:31:54.058Z,101946.06
2022-11-18T08:34:22.205Z,101946.13
2022-11-18T08:36:52.336Z,101936.91
2022-11-18T08:39:20.505Z,101934.38
2022-11-18T08:41:48.591Z,101939.47
2022-11-18T08:44:18.472Z,101939.44
2022-11-18T08:46:46.878Z,101924.84
2022-11-18T08:49:15.735Z,101943.53
2022-11-18T08:51:45.250Z,101933.44
2022-11-18T08:54:13.228Z,101927.56
2022-11-18T08:56:41.490Z,101937.81
2022-11-18T08:59:09.972Z,101939.47
2022-11-18T09:01:39.475Z,101933.56
2022-11-18T09:04:07.604Z,101928.16
2022-11-18T09:06:35.707Z,101938.44
2022-11-18T09:09:18.289Z,101938.34
2022-11-18T09:11:46.477Z,101938.19
2022-11-18T09:17:03.543Z,101941.47
2022-11-18T09:19:46.642Z,101932.91
2022-11-18T09:22:18.162Z,101943.03
2022-11-18T09:24:46.257Z,101918.34
2022-11-18T09:30:04.239Z,101924.97
2022-11-18T09:32:34.593Z,101919.75
2022-11-18T09:35:02.692Z,101921.38
2022-11-18T09:37:32.096Z,101917.88
2022-11-18T09:40:00.241Z,101909.34
2022-11-18T09:42:55.972Z,101925.94
2022-11-18T09:45:46.121Z,101913.81
2022-11-18T09:48:48.340Z,101916.09
2022-11-18T09:51:16.356Z,101925.22
2022-11-18T09:53:46.711Z,101924.25
2022-11-18T09:56:18.254Z,101916.56
2022-11-18T09:58:46.663Z,101917.41
2022-11-18T10:01:19.635Z,101909.91
2022-11-18T10:03:48.541Z,101914.84
2022-11-18T10:06:25.177Z,101916.44
2022-11-18T10:09:19.255Z,101911.88
2022-11-18T10:11:58.464Z,101909.09
2022-11-18T10:14:52.393Z,101910.53
2022-11-18T10:17:36.519Z,101921.19
2022-11-18T10:20:35.717Z,101919.13
2022-11-18T10:23:15.376Z,101923.69
2022-11-18T10:25:43.896Z,101933.53
2022-11-18T10:28:23.924Z,101915.66
2022-11-18T10:30:53.697Z,101924.66
2022-11-18T10:33:28.605Z,101909.13
2022-11-18T10:36:17.858Z,101923.22
2022-11-18T10:38:50.099Z,101918.84
2022-11-18T10:41:21.712Z,101913.19
2022-11-18T10:43:58.119Z,101917.00
2022-11-18T10:46:35.111Z,101926.47
2022-11-18T10:49:18.965Z,101914.34
2022-11-18T10:52:13.611Z,101910.78
2022-11-18T10:54:44.328Z,101908.94
2022-11-18T10:57:12.311Z,101905.38
2022-11-18T10:59:52.070Z,101909.94
2022-11-18T11:02:55.220Z,101908.63
2022-11-18T11:05:25.540Z,101908.38
2022-11-18T11:08:34.577Z,101905.63
2022-11-18T11:11:00.103Z,101902.03
2022-11-18T11:13:31.435Z,101908.41
2022-11-18T11:16:04.423Z,101913.22
2022-11-18T11:18:44.219Z,101908.84
2022-11-18T11:21:17.433Z,101894.88
2022-11-18T11:23:48.138Z,101906.94
2022-11-18T11:29:58.332Z,101911.41
2022-11-18T11:32:48.169Z,101912.66
2022-11-18T11:35:35.912Z,101912.47
2022-11-18T11:38:13.927Z,101917.22
2022-11-18T11:41:08.420Z,101910.97
2022-11-18T11:44:20.836Z,101916.00
2022-11-18T11:47:24.322Z,101910.41
2022-11-18T11:50:04.187Z,101915.00
2022-11-18T11:53:17.180Z,101903.88
2022-11-18T11:56:12.768Z,101901.03
2022-11-18T11:58:50.712Z,101909.31
2022-11-18T12:01:32.403Z,101904.13
2022-11-18T12:04:28.058Z,101912.59
2022-11-18T12:06:57.142Z,101919.75
2022-11-18T12:09:34.394Z,101916.31
2022-11-18T12:12:38.060Z,101897.13
2022-11-18T12:15:24.733Z,101922.84
2022-11-18T12:18:11.075Z,101912.72
2022-11-18T12:20:44.207Z,101905.91
2022-11-18T12:23:23.411Z,101914.00
2022-11-18T12:25:53.642Z,101918.06
2022-11-18T12:28:46.899Z,101899.19
2022-11-18T12:31:23.894Z,101901.06
2022-11-18T12:33:59.347Z,101913.38
2022-11-18T12:36:27.514Z,101913.00
2022-11-18T12:38:56.765Z,101864.53
2022-11-18T12:42:01.653Z,101901.72
2022-11-18T12:44:32.191Z,101903.38
2022-11-18T12:47:05.023Z,101895.69
2022-11-18T12:49:32.984Z,101899.06
2022-11-18T12:52:03.112Z,101907.78
2022-11-18T12:54:33.303Z,101908.91
2022-11-18T12:57:23.051Z,101896.81
2022-11-18T12:59:53.933Z,101903.72
2022-11-18T13:02:30.597Z,101903.72
2022-11-18T13:05:13.664Z,101902.50
2022-11-18T13:08:15.664Z,101892.25
2022-11-18T13:10:54.793Z,101895.38
2022-11-18T13:13:33.690Z,101900.16
2022-11-18T13:16:42.041Z,101898.38
2022-11-18T13:19:21.773Z,101893.19
2022-11-18T13:22:14.510Z,101880.41
2022-11-18T13:24:48.157Z,101888.03
2022-11-18T13:27:35.735Z,101885.59
2022-11-18T13:30:09.169Z,101886.28
2022-11-18T13:32:37.360Z,101889.44
2022-11-18T13:35:24.533Z,101882.69
2022-11-18T13:37:56.665Z,101873.91
2022-11-18T13:40:40.972Z,101876.91
2022-11-18T13:43:11.985Z,101883.50
2022-11-18T13:45:40.799Z,101866.13
2022-11-18T13:48:17.064Z,101879.69
2022-11-18T13:50:55.866Z,101872.78
2022-11-18T13:53:41.229Z,101875.22
2022-11-18T13:56:21.042Z,101876.00
2022-11-18T14:01:40.935Z,101868.84
2022-11-18T14:04:19.229Z,101867.84
2022-11-18T14:06:47.139Z,101861.97
2022-11-18T14:09:29.212Z,101856.00
2022-11-18T14:12:08.195Z,101860.84
2022-11-18T14:14:42.338Z,101855.53
2022-11-18T14:17:26.169Z,101859.75
2022-11-18T14:20:00.133Z,101858.56
2022-11-18T14:22:32.253Z,101853.91
2022-11-18T14:25:18.906Z,101849.50
2022-11-18T14:27:50.097Z,101851.34
2022-11-18T14:30:29.545Z,101851.41
2022-11-18T14:33:17.342Z,101846.56
2022-11-18T14:35:58.919Z,101848.22
2022-11-18T14:38:44.086Z,101844.94
2022-11-18T14:41:44.814Z,101852.44
2022-11-18T14:44:14.326Z,101831.22
2022-11-18T14:46:47.153Z,101844.78
2022-11-18T14:49:18.944Z,101848.91
2022-11-18T14:51:47.524Z,101851.91
2022-11-18T14:54:25.852Z,101804.75
2022-11-18T14:56:58.770Z,101842.59
2022-11-18T14:59:28.126Z,101834.22
2022-11-18T15:01:57.128Z,101842.59
2022-11-18T15:04:26.470Z,101846.06
2022-11-18T15:06:55.401Z,101825.78
2022-11-18T15:09:23.720Z,101828.97
2022-11-18T15:11:51.684Z,101832.97
2022-11-18T15:14:21.327Z,101831.94
2022-11-18T15:16:49.972Z,101803.69
2022-11-18T15:19:18.120Z,101797.66
2022-11-18T15:21:46.380Z,101819.06
2022-11-18T15:24:14.625Z,101817.28
2022-11-18T15:26:47.877Z,101823.06
2022-11-18T15:29:21.173Z,101814.47
2022-11-18T15:31:50.158Z,101822.66
2022-11-18T15:34:21.498Z,101824.22
2022-11-18T15:36:52.270Z,101821.38
2022-11-18T15:39:20.282Z,101815.28
2022-11-18T15:41:48.306Z,101819.16
2022-11-18T15:44:17.125Z,101813.19
2022-11-18T15:46:48.587Z,101818.88
2022-11-18T15:49:18.377Z,101813.69
2022-11-18T15:51:47.254Z,101803.53
2022-11-18T15:54:15.554Z,101803.28
2022-11-18T15:56:43.421Z,101808.97
2022-11-18T15:59:14.555Z,101801.19
2022-11-18T16:01:48.332Z,101796.63
2022-11-18T16:04:20.520Z,101800.09
2022-11-18T16:06:50.407Z,101776.72
2022-11-18T16:09:19.176Z,101790.44
2022-11-18T16:12:05.767Z,101767.94
2022-11-18T16:14:36.767Z,101795.94
2022-11-18T16:17:04.933Z,101779.13
2022-11-18T16:19:34.248Z,101782.16
2022-11-18T16:22:02.302Z,101784.28
2022-11-18T16:24:30.450Z,101787.44
2022-11-18T16:26:58.735Z,101766.19
2022-11-18T16:29:26.477Z,101772.47
2022-11-18T16:31:55.150Z,101779.88
2022-11-18T16:34:30.196Z,101786.59
2022-11-18T16:37:02.596Z,101773.22
2022-11-18T16:39:30.771Z,101773.09
2022-11-18T16:42:07.925Z,101761.72
2022-11-18T16:44:37.009Z,101765.06
2022-11-18T16:47:14.376Z,101771.53
2022-11-18T16:49:44.094Z,101755.06
2022-11-18T16:52:12.171Z,101766.19
2022-11-18T16:54:45.767Z,101766.97
2022-11-18T16:57:15.082Z,101758.59
2022-11-18T16:59:43.172Z,101764.38
2022-11-18T17:02:13.860Z,101748.44
2022-11-18T17:04:42.294Z,101761.53
2022-11-18T17:07:10.060Z,101755.56
2022-11-18T17:09:38.456Z,101755.41
2022-11-18T17:12:06.371Z,101744.28
2022-11-18T17:14:34.745Z,101745.06
2022-11-18T17:17:04.986Z,101749.97
2022-11-18T17:19:33.195Z,101757.34
2022-11-18T17:22:01.162Z,101729.50
2022-11-18T17:24:29.363Z,101727.00
2022-11-18T17:26:57.080Z,101727.47
2022-11-18T17:29:25.102Z,101735.63
2022-11-18T17:31:55.303Z,101725.28
2022-11-18T17:34:23.257Z,101728.28
2022-11-18T17:36:51.221Z,101719.84
2022-11-18T17:39:21.395Z,101722.25
2022-11-18T17:42:08.011Z,101721.22
2022-11-18T17:44:37.009Z,101721.13
2022-11-18T17:47:05.101Z,101704.16
2022-11-18T17:49:33.154Z,101713.44
2022-11-18T17:52:01.285Z,101705.97
2022-11-18T17:54:29.417Z,101699.75
2022-11-18T17:56:57.449Z,101714.91
2022-11-18T17:59:26.296Z,101709.91
2022-11-18T18:01:59.042Z,101715.69
2022-11-18T18:04:27.811Z,101694.16
2022-11-18T18:06:57.273Z,101712.72
2022-11-18T18:09:30.398Z,101723.47
2022-11-18T18:12:00.978Z,101712.56
2022-11-18T18:14:29.081Z,101720.91
2022-11-18T18:16:57.132Z,101699.38
2022-11-18T18:19:25.338Z,101706.09
2022-11-18T18:21:55.757Z,101670.50
2022-11-18T18:24:24.831Z,101695.25
2022-11-18T18:26:52.807Z,101701.88
2022-11-18T18:29:22.164Z,101706.09
2022-11-18T18:31:50.121Z,101691.91
2022-11-18T18:34:18.935Z,101680.75
2022-11-18T18:36:47.103Z,101695.00
2022-11-18T18:39:14.995Z,101685.97
2022-11-18T18:41:43.044Z,101690.88
2022-11-18T18:44:15.347Z,101693.31
2022-11-18T18:46:46.506Z,101694.31
2022-11-18T18:49:22.111Z,101681.75
2022-11-18T18:51:50.925Z,101674.97
2022-11-18T18:54:21.126Z,101681.59
2022-11-18T18:56:49.448Z,101689.84
2022-11-18T18:59:17.460Z,101681.41
2022-11-18T19:01:45.538Z,101671.16
2022-11-18T19:04:14.710Z,101670.19
2022-11-18T19:06:58.460Z,101672.50
2022-11-18T19:09:28.182Z,101667.25
2022-11-18T19:12:14.950Z,101671.00
2022-11-18T19:14:43.930Z,101643.44
2022-11-18T19:17:12.860Z,101661.25
2022-11-18T19:20:01.501Z,101589.63
2022-11-18T19:22:33.870Z,101659.75
2022-11-18T19:25:02.236Z,101655.94
2022-11-18T19:27:33.106Z,101661.09
2022-11-18T19:30:01.318Z,101648.53
2022-11-18T19:32:31.880Z,101648.44
2022-11-18T19:35:01.207Z,101635.97
2022-11-18T19:37:29.195Z,101633.50
2022-11-18T19:39:59.330Z,101633.41
2022-11-18T19:42:27.454Z,101629.28
2022-11-18T19:44:55.196Z,101629.47
2022-11-18T19:47:23.391Z,101633.50
2022-11-18T19:49:51.271Z,101620.16
2022-11-18T19:52:19.192Z,101628.31
2022-11-18T19:54:47.146Z,101624.09
2022-11-18T19:57:17.108Z,101629.66
2022-11-18T19:59:46.353Z,101557.69
2022-11-18T20:02:14.908Z,101611.84
2022-11-18T20:05:02.894Z,101615.75
2022-11-18T20:07:31.221Z,101620.84
2022-11-18T20:09:58.951Z,101612.22
2022-11-18T20:12:28.065Z,101626.31
2022-11-18T20:14:56.028Z,101617.97
2022-11-18T20:18:13.244Z,101614.72
2022-11-18T20:20:41.514Z,101618.94
2022-11-18T20:23:11.342Z,101603.97
2022-11-18T20:25:39.211Z,101613.19
2022-11-18T20:28:07.161Z,101603.22
2022-11-18T20:30:35.173Z,101610.69
2022-11-18T20:33:06.373Z,101616.34
2022-11-18T20:35:34.320Z,101603.56
2022-11-18T20:38:02.461Z,101595.91
2022-11-18T20:40:32.065Z,101597.81
2022-11-18T20:43:15.009Z,101597.63
2022-11-18T20:45:46.035Z,101614.97
2022-11-18T20:48:14.793Z,101599.84
2022-11-18T20:50:42.727Z,101607.22
2022-11-18T20:53:13.067Z,101591.22
2022-11-18T20:55:41.099Z,101581.25
2022-11-18T20:58:09.351Z,101581.34
2022-11-18T21:00:38.084Z,101573.97
2022-11-18T21:03:06.245Z,101586.50
2022-11-18T21:05:35.500Z,101568.31
2022-11-18T21:08:03.695Z,101564.00
2022-11-18T21:10:32.951Z,101559.00
2022-11-18T21:13:20.321Z,101562.28
2022-11-18T21:15:48.224Z,101571.47
2022-11-18T21:18:16.224Z,101554.91
2022-11-18T21:21:02.607Z,101554.13
2022-11-18T21:23:30.742Z,101559.88
2022-11-18T21:25:58.675Z,101551.53
2022-11-18T21:28:31.099Z,101544.75
2022-11-18T21:30:59.043Z,101542.16
2022-11-18T21:33:26.981Z,101541.88
2022-11-18T21:35:55.198Z,101541.22
2022-11-18T21:38:23.189Z,101543.69
2022-11-18T21:40:51.206Z,101544.38
2022-11-18T21:43:25.130Z,101530.09
2022-11-18T21:46:06.551Z,101529.94
2022-11-18T21:48:34.783Z,101530.59
2022-11-18T21:51:04.844Z,101524.66
2022-11-18T21:53:33.122Z,101505.50
2022-11-18T21:56:23.368Z,101521.69
2022-11-18T21:58:52.737Z,101506.28
2022-11-18T22:01:26.671Z,101527.44
2022-11-18T22:03:57.370Z,101529.81
2022-11-18T22:06:27.377Z,101510.59
2022-11-18T22:08:57.065Z,101508.84
2022-11-18T22:11:26.260Z,101495.66
2022-11-18T22:13:54.512Z,101504.47
2022-11-18T22:16:25.732Z,101494.53
2022-11-18T22:19:01.453Z,101505.13
2022-11-18T22:21:32.584Z,101489.75
2022-11-18T22:24:06.199Z,101491.91
2022-11-18T22:26:34.315Z,101477.38
2022-11-18T22:29:02.323Z,101490.97
2022-11-18T22:31:30.492Z,101484.94
2022-11-18T22:33:58.477Z,101475.56
2022-11-18T22:36:28.228Z,101485.34
2022-11-18T22:38:57.817Z,101475.38
2022-11-18T22:41:47.068Z,101474.72
2022-11-18T22:44:18.578Z,101463.31
2022-11-18T22:46:46.752Z,101463.41
2022-11-18T22:49:14.926Z,101456.78
2022-11-18T22:51:43.067Z,101455.25
2022-11-18T22:54:37.290Z,101452.00
2022-11-18T22:56:58.938Z,101455.16
2022-11-18T22:59:26.897Z,101461.78
2022-11-18T23:01:55.026Z,101460.81
2022-11-18T23:04:23.270Z,101448.47
2022-11-18T23:06:51.224Z,101425.31
2022-11-18T23:09:19.458Z,101447.31
2022-11-18T23:12:06.354Z,101449.31
2022-11-18T23:14:34.499Z,101446.84
2022-11-18T23:17:02.271Z,101430.94
2022-11-18T23:19:30.441Z,101434.88
2022-11-18T23:21:58.471Z,101424.75
2022-11-18T23:24:27.437Z,101438.81
2022-11-18T23:26:56.954Z,101425.59
2022-11-18T23:29:24.940Z,101418.22
2022-11-18T23:31:54.376Z,101410.84
2022-11-18T23:34:22.559Z,101426.56
2022-11-18T23:36:50.523Z,101413.53
2022-11-18T23:39:18.823Z,101415.25
2022-11-18T23:41:47.551Z,101396.00
2022-11-18T23:44:15.552Z,101401.25
2022-11-18T23:46:43.475Z,101403.16
2022-11-18T23:49:13.249Z,101397.41
2022-11-18T23:51:41.943Z,101407.47
2022-11-18T23:54:09.843Z,101394.22
2022-11-18T23:56:39.625Z,101400.25
2022-11-18T23:59:07.598Z,101399.47
